KLLJ

Challis Airport

Challis, Idaho, USA
METAR KLLJ 202024Z AUTO 02012G21KT 7SM BKN110 23/07 A2993 RMK AO2 LTG DSNT NE AND E AND SW RAB1956E08 P0000 T02330072
Observed Flight Rules
Aug-20 @ 20:24 UTC (7 minutes ago) Visual Flight Rules
Wind Visibility Clouds
20° at 12 knots
 Gusting to 21 knots
7 miles
  • Broken at 11,000' AGL
Temperatures Readings Precipitation
Current 23°C / 73°F
Dewpoint 7°C / 45°F
Humidity 36%
Altimeter 29.93" Hg
Pressure 1014 hPa
Elevation 1536
Current Rain 0.005
METAR KLLJ 202024Z AUTO 02012G21KT 7SM BKN110 23/07 A2993 RMK AO2 LTG DSNT NE AND E AND SW RAB1956E08 P0000 T02330072
Observed Flight Rules
Aug-20 @ 20:24 UTC
(7 minutes ago)
VFR
Wind Visibility
20° at 12 knots
 Gusting to 21 knots
7 miles
Clouds
  • Broken at 11,000' AGL
Temperature Dewpoint
23°C / 73°F 7°C / 45°F
Humidity Altimeter Pressure
36% 29.93" Hg 1014 hPa
Current Rain
0.005